Time;durP1;ratioP1;P1;durP2;ratioP2;P2;SDS_P1;SDS_P2;PMS_P1;PMS_P2;Temp;Humidity;BMP_temperature;BMP_pressure;BME280_temperature;BME280_humidity;BME280_pressure;Samples;Min_cycle;Max_cycle;Signal;HPM_P1;HPM_P2
2022/04/03 00:02:26;;;;;;;1999.90;999.90;;;;;;;-3.75;38.67;101556.69;4919719;28;99975;-71
2022/04/03 00:04:54;;;;;;;1999.90;999.90;;;;;;;-3.78;39.04;101550.25;4922960;28;97172;-72
2022/04/03 00:07:22;;;;;;;1999.90;999.90;;;;;;;-3.82;38.89;101554.28;4922471;28;97702;-73
2022/04/03 00:09:49;;;;;;;1999.90;999.90;;;;;;;-3.88;38.72;101554.63;4922783;28;99981;-71
2022/04/03 00:12:17;;;;;;;1999.90;999.90;;;;;;;-3.91;38.93;101554.38;4921353;28;98930;-71
2022/04/03 00:14:46;;;;;;;1999.90;999.90;;;;;;;-3.95;38.88;101557.44;4922487;28;96905;-71
2022/04/03 00:17:14;;;;;;;1999.90;999.90;;;;;;;-3.99;39.00;101550.13;4923778;28;97714;-71
2022/04/03 00:19:57;;;;;;;1999.90;999.90;;;;;;;-4.02;38.90;101562.88;4921996;28;97938;-71
2022/04/03 00:22:40;;;;;;;1999.90;999.90;;;;;;;-4.06;39.07;101557.28;4920458;28;97344;-71
2022/04/03 00:25:23;;;;;;;1999.90;999.90;;;;;;;-4.10;39.09;101563.88;4923015;28;97235;-72
2022/04/03 00:27:50;;;;;;;1999.90;999.90;;;;;;;-4.14;39.09;101559.16;4923611;28;97393;-71
2022/04/03 00:30:19;;;;;;;1999.90;999.90;;;;;;;-4.19;39.37;101555.22;4922425;28;97610;-71
2022/04/03 00:32:47;;;;;;;1999.90;999.90;;;;;;;-4.23;38.95;101553.13;4922536;28;98146;-71
2022/04/03 00:35:16;;;;;;;1999.90;999.90;;;;;;;-4.29;39.19;101551.63;4921810;28;97091;-71
2022/04/03 00:37:44;;;;;;;1999.90;999.90;;;;;;;-4.33;39.18;101558.22;4921971;28;97071;-71
2022/04/03 00:40:12;;;;;;;1999.90;999.90;;;;;;;-4.34;39.40;101548.63;4920745;28;97689;-72
2022/04/03 00:42:40;;;;;;;1999.90;999.90;;;;;;;-4.34;39.34;101552.91;4921212;28;100657;-71
2022/04/03 00:45:10;;;;;;;1999.90;999.90;;;;;;;-4.34;39.05;101551.22;4921793;28;97148;-71
2022/04/03 00:47:40;;;;;;;1999.90;999.90;;;;;;;-4.35;39.29;101551.09;4923463;28;96890;-72
2022/04/03 00:50:08;;;;;;;1999.90;999.90;;;;;;;-4.41;39.21;101546.25;4922049;28;97362;-72
2022/04/03 00:52:36;;;;;;;1999.90;999.90;;;;;;;-4.45;39.30;101544.13;4919244;28;98802;-72
2022/04/03 00:55:04;;;;;;;1999.90;999.90;;;;;;;-4.46;39.37;101544.88;4923162;28;97858;-71
2022/04/03 00:57:34;;;;;;;1999.90;999.90;;;;;;;-4.49;39.39;101544.59;4921274;28;96859;-72
2022/04/03 01:00:03;;;;;;;1999.90;999.90;;;;;;;-4.49;39.28;101541.09;4922868;28;97578;-72
2022/04/03 01:02:31;;;;;;;1999.90;999.90;;;;;;;-4.05;38.37;101538.28;4919817;28;101037;-72
2022/04/03 01:05:00;;;;;;;1999.90;999.90;;;;;;;-4.35;39.03;101546.78;4922253;28;97089;-71
2022/04/03 01:07:28;;;;;;;1999.90;999.90;;;;;;;-3.93;38.13;101535.13;4919824;28;96852;-72
2022/04/03 01:09:56;;;;;;;1999.90;999.90;;;;;;;-4.26;38.73;101538.94;4924065;28;97885;-72
2022/04/03 01:12:23;;;;;;;1999.90;999.90;;;;;;;-4.37;39.18;101537.03;4917491;28;98844;-71
2022/04/03 01:15:14;;;;;;;1999.90;999.90;;;;;;;-4.44;39.01;101540.75;4906360;28;98135;-72
2022/04/03 01:17:42;;;;;;;1999.90;999.90;;;;;;;-4.48;38.91;101537.75;4922705;28;96767;-74
2022/04/03 01:20:12;;;;;;;1999.90;999.90;;;;;;;-4.52;39.21;101535.63;4922868;28;98783;-72
2022/04/03 01:22:40;;;;;;;1999.90;999.90;;;;;;;-4.58;39.23;101543.75;4916748;28;98686;-71
2022/04/03 01:25:10;;;;;;;1999.90;999.90;;;;;;;-4.62;39.23;101539.03;4920351;28;97282;-71
2022/04/03 01:27:39;;;;;;;1999.90;999.90;;;;;;;-4.64;39.33;101542.28;4905160;28;97486;-71
2022/04/03 01:30:09;;;;;;;1999.90;999.90;;;;;;;-4.66;39.50;101546.41;4922083;28;97654;-71
2022/04/03 01:32:36;;;;;;;1999.90;999.90;;;;;;;-4.68;39.27;101540.16;4919403;28;98460;-72
2022/04/03 01:35:05;;;;;;;1999.90;999.90;;;;;;;-4.70;39.50;101547.81;4920379;28;98296;-72
2022/04/03 01:37:33;;;;;;;1999.90;999.90;;;;;;;-4.71;39.42;101548.56;4922641;28;97105;-71
2022/04/03 01:40:01;;;;;;;1999.90;999.90;;;;;;;-4.72;39.35;101546.75;4921453;28;97463;-72
2022/04/03 01:42:30;;;;;;;1999.90;999.90;;;;;;;-4.72;39.32;101556.22;4921638;28;97676;-72
2022/04/03 01:44:57;;;;;;;1999.90;999.90;;;;;;;-4.72;39.33;101551.94;4922375;28;97494;-72
2022/04/03 01:47:25;;;;;;;1999.90;999.90;;;;;;;-4.74;39.21;101548.28;4922407;28;97646;-72
2022/04/03 01:49:53;;;;;;;1999.90;999.90;;;;;;;-4.76;39.40;101549.84;4920670;28;99008;-72
2022/04/03 01:52:21;;;;;;;1999.90;999.90;;;;;;;-4.78;39.56;101546.16;4920136;28;98009;-72
2022/04/03 01:54:49;;;;;;;1999.90;999.90;;;;;;;-4.79;39.30;101549.56;4920656;28;96893;-72
2022/04/03 01:57:17;;;;;;;1999.90;999.90;;;;;;;-4.81;39.33;101545.91;4921552;28;97145;-72
2022/04/03 01:59:45;;;;;;;1999.90;999.90;;;;;;;-4.84;39.31;101553.38;4909754;28;97691;-72
2022/04/03 02:02:13;;;;;;;1999.90;999.90;;;;;;;-4.86;39.58;101547.13;4916986;28;97888;-72
2022/04/03 02:04:41;;;;;;;1999.90;999.90;;;;;;;-4.89;39.50;101546.84;4920107;28;97865;-72
2022/04/03 02:07:10;;;;;;;1999.90;999.90;;;;;;;-4.92;39.28;101546.56;4920036;28;97878;-72
2022/04/03 02:09:38;;;;;;;1999.90;999.90;;;;;;;-4.95;39.50;101539.41;4921187;28;98588;-72
2022/04/03 02:12:06;;;;;;;1999.90;999.90;;;;;;;-4.96;39.67;101537.59;4920665;28;97610;-72
2022/04/03 02:14:34;;;;;;;1999.90;999.90;;;;;;;-4.97;39.37;101540.94;4920810;28;98160;-71
2022/04/03 02:17:03;;;;;;;1999.90;999.90;;;;;;;-4.97;39.43;101537.41;4920897;28;97807;-71
2022/04/03 02:19:31;;;;;;;1999.90;999.90;;;;;;;-4.97;39.48;101538.34;4920131;28;99265;-72
2022/04/03 02:21:59;;;;;;;1999.90;999.90;;;;;;;-4.98;39.07;101539.13;4921884;28;98128;-71
2022/04/03 02:24:27;;;;;;;1999.90;999.90;;;;;;;-4.99;39.32;101539.88;4919237;28;97899;-71
2022/04/03 02:26:54;;;;;;;1999.90;999.90;;;;;;;-5.01;39.21;101545.69;4919370;28;97240;-71
2022/04/03 02:29:22;;;;;;;1999.90;999.90;;;;;;;-5.00;39.31;101539.72;4919730;28;100045;-72
2022/04/03 02:31:50;;;;;;;1999.90;999.90;;;;;;;-5.02;39.14;101544.78;4921081;28;97815;-72
2022/04/03 02:34:19;;;;;;;1999.90;999.90;;;;;;;-5.01;39.27;101543.09;4921313;28;96762;-72
2022/04/03 02:36:47;;;;;;;1999.90;999.90;;;;;;;-5.00;39.09;101542.31;4919434;28;96978;-71
2022/04/03 02:39:15;;;;;;;1999.90;999.90;;;;;;;-4.98;39.04;101540.78;4921840;28;97623;-71
2022/04/03 02:41:42;;;;;;;1999.90;999.90;;;;;;;-4.98;39.06;101541.72;4922249;28;97701;-71
2022/04/03 02:44:11;;;;;;;1999.90;999.90;;;;;;;-4.96;39.00;101547.03;4924245;28;97584;-71
2022/04/03 02:46:38;;;;;;;1999.90;999.90;;;;;;;-4.96;39.17;101542.78;4925208;28;97215;-71
2022/04/03 02:49:08;;;;;;;1999.90;999.90;;;;;;;-4.98;39.39;101540.78;4925897;28;97433;-71
2022/04/03 02:51:37;;;;;;;1999.90;999.90;;;;;;;-4.98;39.28;101535.59;4922693;28;98556;-71
2022/04/03 02:54:05;;;;;;;1999.90;999.90;;;;;;;-4.97;39.24;101542.59;4923884;28;97056;-72
2022/04/03 02:56:33;;;;;;;1999.90;999.90;;;;;;;-4.98;39.06;101539.13;4923902;28;97297;-72
2022/04/03 02:59:01;;;;;;;1999.90;999.90;;;;;;;-4.98;38.93;101541.72;4923491;28;98518;-71
2022/04/03 03:01:28;;;;;;;1999.90;999.90;;;;;;;-4.99;39.29;101534.69;4923390;28;97855;-72
2022/04/03 03:03:56;;;;;;;1999.90;999.90;;;;;;;-4.99;38.87;101538.97;4922387;28;98883;-71
2022/04/03 03:06:24;;;;;;;1999.90;999.90;;;;;;;-5.04;39.20;101535.00;4923258;28;97077;-72
2022/04/03 03:08:53;;;;;;;1999.90;999.90;;;;;;;-5.05;38.98;101534.13;4922470;28;98119;-71
2022/04/03 03:11:21;;;;;;;1999.90;999.90;;;;;;;-5.08;38.81;101540.66;4924480;28;97839;-71
2022/04/03 03:13:49;;;;;;;1999.90;999.90;;;;;;;-5.10;39.06;101544.84;4922721;28;96858;-71
2022/04/03 03:16:16;;;;;;;1999.90;999.90;;;;;;;-5.15;39.27;101536.59;4922736;28;97324;-72
2022/04/03 03:18:44;;;;;;;1999.90;999.90;;;;;;;-5.15;39.26;101535.66;4922917;28;99389;-72
2022/04/03 03:21:12;;;;;;;1999.90;999.90;;;;;;;-5.16;39.34;101536.47;4923604;28;97579;-72
2022/04/03 03:23:41;;;;;;;1999.90;999.90;;;;;;;-5.14;39.32;101540.13;4924151;28;97134;-71
2022/04/03 03:26:10;;;;;;;1999.90;999.90;;;;;;;-5.14;39.34;101545.31;4923490;28;97806;-71
2022/04/03 03:28:37;;;;;;;1999.90;999.90;;;;;;;-5.16;38.88;101550.34;4922197;28;99384;-72
2022/04/03 03:31:06;;;;;;;1999.90;999.90;;;;;;;-5.16;39.21;101534.78;4937912;28;98011;-72
2022/04/03 03:33:34;;;;;;;1999.90;999.90;;;;;;;-5.20;39.22;101537.84;4922186;28;97815;-72
2022/04/03 03:36:02;;;;;;;1999.90;999.90;;;;;;;-5.23;39.40;101534.94;4925635;28;97981;-72
2022/04/03 03:38:29;;;;;;;1999.90;999.90;;;;;;;-5.27;39.56;101534.53;4922195;28;99609;-71
2022/04/03 03:40:57;;;;;;;1999.90;999.90;;;;;;;-5.33;39.71;101539.09;4920883;28;99235;-71
2022/04/03 03:43:26;;;;;;;1999.90;999.90;;;;;;;-5.36;39.18;101541.41;4921987;28;97143;-71
2022/04/03 03:45:54;;;;;;;1999.90;999.90;;;;;;;-5.35;39.69;101546.75;4923224;28;96788;-72
2022/04/03 03:48:21;;;;;;;1999.90;999.90;;;;;;;-5.41;39.21;101540.06;4922972;28;97209;-71
2022/04/03 03:50:49;;;;;;;1999.90;999.90;;;;;;;-5.44;39.09;101544.94;4911291;28;98673;-71
2022/04/03 03:53:17;;;;;;;1999.90;999.90;;;;;;;-5.45;39.14;101544.06;4923073;28;97089;-71
2022/04/03 03:55:45;;;;;;;1999.90;999.90;;;;;;;-5.45;39.31;101537.94;4924323;28;97202;-71
2022/04/03 03:58:13;;;;;;;1999.90;999.90;;;;;;;-5.46;39.52;101542.22;4924242;28;98911;-71
2022/04/03 04:00:42;;;;;;;1999.90;999.90;;;;;;;-5.45;39.48;101538.88;4921393;28;98170;-72
2022/04/03 04:03:10;;;;;;;1999.90;999.90;;;;;;;-5.44;39.60;101542.34;4936999;28;97457;-71
2022/04/03 04:05:38;;;;;;;1999.90;999.90;;;;;;;-5.45;39.40;101546.66;4909308;28;97293;-71
2022/04/03 04:08:07;;;;;;;1999.90;999.90;;;;;;;-5.44;39.63;101543.28;4921192;28;96621;-72
2022/04/03 04:10:35;;;;;;;1999.90;999.90;;;;;;;-5.45;39.64;101538.88;4895961;28;98599;-72
2022/04/03 04:13:03;;;;;;;1999.90;999.90;;;;;;;-5.42;39.16;101548.59;4921957;28;97227;-71
2022/04/03 04:15:30;;;;;;;1999.90;999.90;;;;;;;-5.41;39.33;101537.47;4921306;28;97612;-70
2022/04/03 04:18:00;;;;;;;1999.90;999.90;;;;;;;-5.37;39.21;101547.34;4921066;28;98182;-71
2022/04/03 04:20:28;;;;;;;1999.90;999.90;;;;;;;-5.36;39.36;101544.00;4921335;28;97671;-71
2022/04/03 04:22:56;;;;;;;1999.90;999.90;;;;;;;-5.36;39.73;101544.00;4920235;28;97865;-71
2022/04/03 04:25:23;;;;;;;1999.90;999.90;;;;;;;-5.37;39.38;101552.53;4906863;28;97609;-72
2022/04/03 04:27:51;;;;;;;1999.90;999.90;;;;;;;-5.39;39.49;101555.00;4920367;28;97696;-73
2022/04/03 04:30:19;;;;;;;1999.90;999.90;;;;;;;-5.40;39.68;101553.19;4920795;28;98961;-72
2022/04/03 04:32:46;;;;;;;1999.90;999.90;;;;;;;-5.41;39.74;101561.72;4894642;28;97673;-72
2022/04/03 04:35:16;;;;;;;1999.90;999.90;;;;;;;-5.41;39.59;101560.81;4922511;28;96795;-72
2022/04/03 04:37:43;;;;;;;1999.90;999.90;;;;;;;-5.47;39.85;101560.22;4924043;28;99142;-72
2022/04/03 04:40:12;;;;;;;1999.90;999.90;;;;;;;-5.49;39.96;101553.97;4903841;28;99244;-71
2022/04/03 04:42:40;;;;;;;1999.90;999.90;;;;;;;-5.48;39.56;101559.28;4921726;28;97733;-72
2022/04/03 04:45:09;;;;;;;1999.90;999.90;;;;;;;-5.47;39.58;101563.72;4920906;28;97543;-72
2022/04/03 04:47:44;;;;;;;1999.90;999.90;;;;;;;-5.46;39.60;101562.03;4921103;28;100818;-72
2022/04/03 04:50:15;;;;;;;1999.90;999.90;;;;;;;-5.45;39.59;101563.88;4905097;28;99525;-72
2022/04/03 04:52:44;;;;;;;1999.90;999.90;;;;;;;-5.46;39.80;101565.53;4920143;28;97254;-72
2022/04/03 04:55:12;;;;;;;1999.90;999.90;;;;;;;-5.46;39.59;101567.22;4921184;28;97112;-72
2022/04/03 04:57:40;;;;;;;1999.90;999.90;;;;;;;-5.46;39.83;101567.22;4922165;28;99011;-72
2022/04/03 05:00:13;;;;;;;1999.90;999.90;;;;;;;-5.47;40.13;101566.31;4922150;28;99953;-71
2022/04/03 05:02:45;;;;;;;1999.90;999.90;;;;;;;-5.48;39.98;101564.47;4923418;28;96860;-72
2022/04/03 05:05:14;;;;;;;1999.90;999.90;;;;;;;-5.44;39.92;101565.69;4908762;28;97083;-72
2022/04/03 05:07:43;;;;;;;1999.90;999.90;;;;;;;-5.43;40.03;101562.34;4920959;28;97981;-72
2022/04/03 05:10:12;;;;;;;1999.90;999.90;;;;;;;-5.43;40.19;101571.06;4921044;28;99269;-72
2022/04/03 05:12:40;;;;;;;1999.90;999.90;;;;;;;-5.43;39.65;101572.72;4921069;28;97149;-72
2022/04/03 05:15:10;;;;;;;1999.90;999.90;;;;;;;-5.43;40.40;101577.91;4936974;28;97071;-72
2022/04/03 05:17:38;;;;;;;1999.90;999.90;;;;;;;-5.43;40.11;101576.22;4921002;28;100918;-72
2022/04/03 05:20:06;;;;;;;1999.90;999.90;;;;;;;-5.43;39.89;101576.22;4922701;28;98716;-72
2022/04/03 05:22:34;;;;;;;1999.90;999.90;;;;;;;-5.44;40.05;101576.06;4920608;28;97933;-72
2022/04/03 05:25:04;;;;;;;1999.90;999.90;;;;;;;-5.48;40.27;101576.56;4922565;28;98099;-73
2022/04/03 05:27:32;;;;;;;1999.90;999.90;;;;;;;-5.50;40.23;101572.91;4921752;28;98799;-72
2022/04/03 05:30:01;;;;;;;1999.90;999.90;;;;;;;-5.50;40.33;101575.50;4922400;28;97911;-72
2022/04/03 05:32:30;;;;;;;1999.90;999.90;;;;;;;-5.49;40.01;101573.03;4917595;28;97733;-72
2022/04/03 05:35:00;;;;;;;1999.90;999.90;;;;;;;-5.51;40.47;101569.38;4922359;28;97497;-72
2022/04/03 05:37:28;;;;;;;1999.90;999.90;;;;;;;-5.51;40.22;101576.22;4920949;28;97757;-72
2022/04/03 05:39:55;;;;;;;1999.90;999.90;;;;;;;-5.50;40.01;101575.50;4921758;28;99079;-72
2022/04/03 05:42:24;;;;;;;1999.90;999.90;;;;;;;-5.48;40.27;101577.44;4918962;28;97357;-72
2022/04/03 05:44:52;;;;;;;1999.90;999.90;;;;;;;-5.46;40.16;101577.59;4923082;28;96992;-72
2022/04/03 05:47:20;;;;;;;1999.90;999.90;;;;;;;-5.46;39.93;101583.69;4920844;28;97808;-72
2022/04/03 05:49:48;;;;;;;1999.90;999.90;;;;;;;-5.44;40.14;101578.66;4922093;28;101161;-72
2022/04/03 05:52:16;;;;;;;1999.90;999.90;;;;;;;-5.43;40.30;101583.09;4918438;28;97996;-72
2022/04/03 05:54:44;;;;;;;1999.90;999.90;;;;;;;-5.38;40.27;101580.19;4919929;28;96870;-73
2022/04/03 05:57:11;;;;;;;1999.90;999.90;;;;;;;-5.33;40.45;101588.38;4921974;28;97347;-72
2022/04/03 05:59:40;;;;;;;1999.90;999.90;;;;;;;-5.29;40.21;101590.50;4920985;28;99174;-71
2022/04/03 06:02:08;;;;;;;1999.90;999.90;;;;;;;-5.25;40.31;101590.97;4920826;28;96858;-70
2022/04/03 06:04:36;;;;;;;1999.90;999.90;;;;;;;-5.17;40.18;101591.69;4922141;28;96999;-73
2022/04/03 06:07:04;;;;;;;1999.90;999.90;;;;;;;-5.09;40.15;101595.94;4920660;28;97437;-72
2022/04/03 06:09:32;;;;;;;1999.90;999.90;;;;;;;-5.01;40.18;101601.09;4919352;28;98077;-72
2022/04/03 06:11:59;;;;;;;1999.90;999.90;;;;;;;-4.94;39.82;101594.81;4919423;28;97606;-71
2022/04/03 06:14:27;;;;;;;1999.90;999.90;;;;;;;-4.86;40.14;101593.84;4922563;28;97297;-72
2022/04/03 06:16:56;;;;;;;1999.90;999.90;;;;;;;-4.77;39.98;101599.00;4924750;28;99672;-71
2022/04/03 06:19:24;;;;;;;1999.90;999.90;;;;;;;-4.72;39.83;101593.50;4924349;28;99031;-72
2022/04/03 06:21:52;;;;;;;1999.90;999.90;;;;;;;-4.64;39.88;101597.69;4927715;28;96995;-71
2022/04/03 06:24:19;;;;;;;1999.90;999.90;;;;;;;-4.55;39.76;101595.06;4929568;28;97057;-71
2022/04/03 06:26:47;;;;;;;1999.90;999.90;;;;;;;-4.48;39.58;101593.16;4930758;28;97682;-72
2022/04/03 06:29:15;;;;;;;1999.90;999.90;;;;;;;-4.42;39.84;101593.75;4929788;28;98205;-71
2022/04/03 06:31:43;;;;;;;1999.90;999.90;;;;;;;-4.36;39.50;101589.13;4922262;28;97265;-71
2022/04/03 06:34:12;;;;;;;1999.90;999.90;;;;;;;-4.29;39.62;101591.53;4925174;28;98889;-72
2022/04/03 06:36:40;;;;;;;1999.90;999.90;;;;;;;-4.21;39.50;101593.16;4924851;28;98254;-71
2022/04/03 06:39:07;;;;;;;1999.90;999.90;;;;;;;-4.15;39.51;101587.63;4922065;28;99342;-72
2022/04/03 06:41:35;;;;;;;1999.90;999.90;;;;;;;-4.07;39.55;101587.53;4921578;28;97244;-72
2022/04/03 06:44:03;;;;;;;1999.90;999.90;;;;;;;-4.02;39.46;101591.47;4918580;28;97797;-71
2022/04/03 06:46:30;;;;;;;1999.90;999.90;;;;;;;-3.99;39.52;101583.03;4920144;28;98028;-71
2022/04/03 06:48:58;;;;;;;1999.90;999.90;;;;;;;-3.95;39.57;101586.03;4905785;28;99752;-71
2022/04/03 06:51:28;;;;;;;1999.90;999.90;;;;;;;-3.89;39.35;101583.09;4921380;28;98710;-72
2022/04/03 06:53:55;;;;;;;1999.90;999.90;;;;;;;-3.86;39.39;101581.69;4921373;28;97946;-72
2022/04/03 06:56:23;;;;;;;1999.90;999.90;;;;;;;-3.83;39.41;101591.44;4922757;28;97681;-72
2022/04/03 06:58:51;;;;;;;1999.90;999.90;;;;;;;-3.79;39.61;101590.97;4924072;28;97817;-72
2022/04/03 07:01:19;;;;;;;1999.90;999.90;;;;;;;-3.75;39.33;101592.16;4922478;28;96830;-71
2022/04/03 07:03:46;;;;;;;1999.90;999.90;;;;;;;-3.69;39.28;101587.47;4921183;28;97469;-72
2022/04/03 07:06:14;;;;;;;1999.90;999.90;;;;;;;-3.68;39.30;101589.31;4922608;28;98916;-72
2022/04/03 07:08:45;;;;;;;1999.90;999.90;;;;;;;-3.66;39.18;101585.19;4923323;28;97505;-72
2022/04/03 07:11:13;;;;;;;1999.90;999.90;;;;;;;-3.62;39.16;101579.50;4921875;28;97141;-71
2022/04/03 07:13:40;;;;;;;1999.90;999.90;;;;;;;-3.55;39.44;101581.84;4895201;28;96898;-71
2022/04/03 07:16:08;;;;;;;1999.90;999.90;;;;;;;-3.50;38.83;101580.56;4922289;28;100878;-71
2022/04/03 07:18:36;;;;;;;1999.90;999.90;;;;;;;-3.46;39.47;101585.28;4923641;28;97551;-71
2022/04/03 07:21:04;;;;;;;1999.90;999.90;;;;;;;-3.43;38.93;101580.34;4922376;28;96866;-71
2022/04/03 07:23:31;;;;;;;1999.90;999.90;;;;;;;-3.37;38.95;101588.69;4922798;28;97760;-71
2022/04/03 07:26:01;;;;;;;1999.90;999.90;;;;;;;-3.34;39.28;101594.16;4924852;28;97899;-71
2022/04/03 07:28:28;;;;;;;1999.90;999.90;;;;;;;-3.31;38.92;101594.47;4921923;28;99001;-71
2022/04/03 07:30:56;;;;;;;1999.90;999.90;;;;;;;-3.28;39.09;101584.31;4892646;28;96867;-71
2022/04/03 07:33:24;;;;;;;1999.90;999.90;;;;;;;-3.25;39.27;101587.19;4922018;28;96860;-71
2022/04/03 07:35:52;;;;;;;1999.90;999.90;;;;;;;-3.19;39.03;101590.31;4914875;28;97756;-71
2022/04/03 07:38:20;;;;;;;1999.90;999.90;;;;;;;-3.13;38.86;101589.16;4921264;28;97734;-71
2022/04/03 07:40:48;;;;;;;1999.90;999.90;;;;;;;-3.07;38.67;101587.13;4921756;28;97165;-71
2022/04/03 07:43:23;;;;;;;1999.90;999.90;;;;;;;-3.03;38.33;101590.91;4917827;28;96861;-70
2022/04/03 07:45:51;;;;;;;1999.90;999.90;;;;;;;-2.98;38.71;101587.00;4920004;28;99697;-72
2022/04/03 07:48:19;;;;;;;1999.90;999.90;;;;;;;-2.96;38.84;101601.97;4919217;28;97671;-72
2022/04/03 07:50:48;;;;;;;1999.90;999.90;;;;;;;-2.94;38.66;101597.81;4908549;28;97899;-73
2022/04/03 07:53:15;;;;;;;1999.90;999.90;;;;;;;-2.90;38.40;101586.91;4919599;28;96835;-75
2022/04/03 07:55:43;;;;;;;1999.90;999.90;;;;;;;-2.85;38.82;101595.09;4920269;28;99123;-74
2022/04/03 07:58:11;;;;;;;1999.90;999.90;;;;;;;-2.79;38.39;101592.13;4920163;28;99014;-74
2022/04/03 08:00:40;;;;;;;1999.90;999.90;;;;;;;-2.74;38.40;101596.94;4911461;28;98317;-74
2022/04/03 08:03:09;;;;;;;1999.90;999.90;;;;;;;-2.69;37.96;101597.38;4921708;28;101268;-72
2022/04/03 08:05:37;;;;;;;1999.90;999.90;;;;;;;-2.64;38.10;101591.78;4907466;28;99696;-73
2022/04/03 08:08:05;;;;;;;1999.90;999.90;;;;;;;-2.59;38.31;101585.25;4914956;28;99315;-72
2022/04/03 08:10:32;;;;;;;1999.90;999.90;;;;;;;-2.51;37.60;101588.53;4896881;28;96910;-71
2022/04/03 08:13:00;;;;;;;1999.90;999.90;;;;;;;-2.44;38.24;101581.38;4920355;28;98594;-72
2022/04/03 08:15:29;;;;;;;1999.90;999.90;;;;;;;-2.37;38.25;101570.69;4917637;28;97055;-72
2022/04/03 08:17:58;;;;;;;1999.90;999.90;;;;;;;-2.28;37.86;101576.66;4924634;28;100804;-71
2022/04/03 08:20:25;;;;;;;1999.90;999.90;;;;;;;-2.21;37.81;101575.47;4914339;28;97028;-72
2022/04/03 08:22:55;;;;;;;1999.90;999.90;;;;;;;-2.16;37.70;101577.72;4914720;28;97864;-71
2022/04/03 08:25:22;;;;;;;1999.90;999.90;;;;;;;-2.11;37.55;101573.81;4918688;28;98506;-72
2022/04/03 08:27:51;;;;;;;1999.90;999.90;;;;;;;-2.04;37.19;101585.69;4916981;28;99694;-72
2022/04/03 08:30:20;;;;;;;1999.90;999.90;;;;;;;-2.00;36.85;101579.94;4909201;28;97121;-72
2022/04/03 08:32:49;;;;;;;1999.90;999.90;;;;;;;-1.70;36.62;101573.72;4916814;28;98956;-72
2022/04/03 08:35:18;;;;;;;1999.90;999.90;;;;;;;-1.80;36.30;101577.28;4903437;28;99242;-72
2022/04/03 08:37:47;;;;;;;1999.90;999.90;;;;;;;-1.76;36.16;101579.34;4920937;28;99935;-73
2022/04/03 08:40:18;;;;;;;1999.90;999.90;;;;;;;-1.71;36.41;101583.25;4915529;28;97897;-71
2022/04/03 08:42:47;;;;;;;1999.90;999.90;;;;;;;-1.67;36.75;101589.66;4920780;28;97117;-72
2022/04/03 08:45:15;;;;;;;1999.90;999.90;;;;;;;-1.63;36.74;101581.28;4920167;28;98177;-72
2022/04/03 08:47:44;;;;;;;1999.90;999.90;;;;;;;-1.58;36.39;101577.34;4921693;28;97980;-71
2022/04/03 08:50:13;;;;;;;1999.90;999.90;;;;;;;-1.56;36.41;101581.00;4918845;28;97730;-72
2022/04/03 08:52:45;;;;;;;1999.90;999.90;;;;;;;-1.50;36.32;101581.47;4921422;28;97071;-72
2022/04/03 08:55:13;;;;;;;1999.90;999.90;;;;;;;-1.44;35.66;101574.16;4897755;28;98797;-72
2022/04/03 08:57:41;;;;;;;1999.90;999.90;;;;;;;-1.39;35.65;101570.22;4919459;28;100568;-72
2022/04/03 09:00:10;;;;;;;1999.90;999.90;;;;;;;-1.35;35.50;101568.00;4915706;28;97797;-72
2022/04/03 09:02:38;;;;;;;1999.90;999.90;;;;;;;-1.28;35.87;101579.84;4917566;28;96902;-71
2022/04/03 09:05:07;;;;;;;1999.90;999.90;;;;;;;-1.26;35.67;101575.66;4917806;28;98039;-72
2022/04/03 09:07:34;;;;;;;1999.90;999.90;;;;;;;-1.26;35.26;101575.66;4922052;28;96980;-71
2022/04/03 09:10:09;;;;;;;1999.90;999.90;;;;;;;-1.25;35.48;101573.16;4920011;28;97410;-72
2022/04/03 09:12:44;;;;;;;1999.90;999.90;;;;;;;-1.24;36.03;101564.56;4920847;28;97041;-71
2022/04/03 09:15:14;;;;;;;1999.90;999.90;;;;;;;-1.16;35.86;101571.28;4935327;28;99170;-72
2022/04/03 09:17:44;;;;;;;1999.90;999.90;;;;;;;-1.12;35.88;101567.22;4935223;28;100007;-73
2022/04/03 09:20:13;;;;;;;1999.90;999.90;;;;;;;-1.06;35.31;101568.63;4920638;28;97797;-71
2022/04/03 09:22:42;;;;;;;1999.90;999.90;;;;;;;-1.00;35.34;101569.13;4920131;28;97598;-72
2022/04/03 09:25:13;;;;;;;1999.90;999.90;;;;;;;-0.94;35.68;101568.72;4922040;28;98847;-72
2022/04/03 09:27:48;;;;;;;1999.90;999.90;;;;;;;-0.92;35.43;101569.72;4919927;28;98141;-73
2022/04/03 09:30:17;;;;;;;1999.90;999.90;;;;;;;-0.87;35.58;101555.34;4920292;28;97535;-72
2022/04/03 09:32:48;;;;;;;1999.90;999.90;;;;;;;-0.82;35.46;101557.53;4922526;28;97784;-71
2022/04/03 09:35:17;;;;;;;1999.90;999.90;;;;;;;-0.75;35.38;101553.66;4920526;28;99296;-73
2022/04/03 09:38:11;;;;;;;1999.90;999.90;;;;;;;-0.76;35.29;101551.88;4921869;28;98819;-73
2022/04/03 09:40:42;;;;;;;1999.90;999.90;;;;;;;-0.69;35.67;101545.41;4921627;28;97045;-73
2022/04/03 09:43:22;;;;;;;1999.90;999.90;;;;;;;-0.64;34.75;101541.44;4913144;28;96842;-73
2022/04/03 09:45:52;;;;;;;1999.90;999.90;;;;;;;-0.56;35.11;101553.41;4919261;28;97343;-73
2022/04/03 09:48:24;;;;;;;1999.90;999.90;;;;;;;-0.53;35.32;101545.78;4918597;28;98932;-73
2022/04/03 09:51:02;;;;;;;1999.90;999.90;;;;;;;-0.51;34.65;101555.59;4923828;28;96812;-73
2022/04/03 09:53:40;;;;;;;1999.90;999.90;;;;;;;-0.44;35.02;101542.19;4920890;28;96831;-73
2022/04/03 09:56:10;;;;;;;1999.90;999.90;;;;;;;-0.38;35.20;101537.44;4918074;28;98740;-73
2022/04/03 09:58:54;;;;;;;1999.90;999.90;;;;;;;-0.38;33.99;101529.59;4921633;28;98000;-73
2022/04/03 10:01:24;;;;;;;1999.90;999.90;;;;;;;-0.29;35.36;101524.16;4912180;28;97824;-73
2022/04/03 10:03:52;;;;;;;1999.90;999.90;;;;;;;-0.21;35.47;101530.88;4935875;28;97224;-73
2022/04/03 10:06:22;;;;;;;1999.90;999.90;;;;;;;-0.17;35.48;101525.97;4921548;28;97004;-73
2022/04/03 10:08:49;;;;;;;1999.90;999.90;;;;;;;-0.10;35.51;101538.72;4915233;28;98175;-73
2022/04/03 10:11:18;;;;;;;1999.90;999.90;;;;;;;-0.06;35.36;101527.72;4914491;28;97139;-74
2022/04/03 10:13:47;;;;;;;1999.90;999.90;;;;;;;0.01;35.38;101519.53;4933740;28;97006;-73
2022/04/03 10:16:16;;;;;;;1999.90;999.90;;;;;;;0.03;35.17;101517.94;4902675;28;99879;-74
2022/04/03 10:18:45;;;;;;;1999.90;999.90;;;;;;;0.04;35.41;101519.78;4922310;28;97686;-73
2022/04/03 10:21:17;;;;;;;1999.90;999.90;;;;;;;-0.00;35.56;101508.94;4919154;28;96961;-73
2022/04/03 10:23:46;;;;;;;1999.90;999.90;;;;;;;0.03;35.53;101512.69;4918283;28;96885;-73
2022/04/03 10:26:17;;;;;;;1999.90;999.90;;;;;;;0.07;35.46;101514.75;4920186;28;97573;-73
2022/04/03 10:28:49;;;;;;;1999.90;999.90;;;;;;;0.11;35.33;101510.66;4920374;28;99720;-73
2022/04/03 10:31:17;;;;;;;1999.90;999.90;;;;;;;0.10;35.19;101514.97;4918179;28;97119;-73
2022/04/03 10:33:49;;;;;;;1999.90;999.90;;;;;;;0.05;35.41;101502.34;4916617;28;99396;-73
2022/04/03 10:36:25;;;;;;;1999.90;999.90;;;;;;;0.02;35.31;101499.50;4919677;28;99187;-74
2022/04/03 10:39:01;;;;;;;1999.90;999.90;;;;;;;-0.01;35.42;101489.72;4917402;28;97254;-73
2022/04/03 10:41:30;;;;;;;1999.90;999.90;;;;;;;0.03;35.58;101501.31;4915708;28;100486;-74
2022/04/03 10:44:15;;;;;;;1999.90;999.90;;;;;;;0.06;35.59;101502.44;4909634;28;98939;-72
2022/04/03 10:47:18;;;;;;;1999.90;999.90;;;;;;;0.08;35.07;101498.25;4900306;28;100145;-74
2022/04/03 10:49:49;;;;;;;1999.90;999.90;;;;;;;0.14;35.05;101489.94;4907389;28;99294;-73
2022/04/03 10:52:25;;;;;;;1999.90;999.90;;;;;;;0.21;35.17;101482.66;4905408;28;96969;-72
2022/04/03 10:54:54;;;;;;;1999.90;999.90;;;;;;;0.30;35.42;101477.25;4915414;28;96904;-73
2022/04/03 10:57:32;;;;;;;1999.90;999.90;;;;;;;0.37;35.05;101469.03;4911588;28;97782;-74